Terminal Aerodrome Forecast
Issued by NWS

Current Version | Previous Version | Text Only | Print | Product List | Glossary Off
Versions: 1 2 3 4 5 6 7 8 9 10 11 12 13 14 15 16 17 18 19 20 21 22 23 24 25 26 27 28 29 30 31 32 33 34 35 36 37 38 39

506
FTUS41 KRNK 240520
TAFLWB
TAF
KLWB 240520Z 2406/2506 00000KT P6SM OVC150
     FM240900 00000KT P6SM VCSH BKN060
     FM241200 00000KT P6SM BKN080
     FM241400 VRB03KT P6SM OVC070
     FM241600 21005KT 6SM -SHRA OVC040
     FM250000 00000KT 6SM BR BKN050=

USA.gov is the U.S. government's official web portal to all federal, state and local government web resources and services.